sensor_id;sensor_type;location;lat;lon;timestamp;temperature;humidity
80214;DHT22;69531;37.974;23.708;2023-05-02T00:01:46;22.70;29.20
80214;DHT22;69531;37.974;23.708;2023-05-02T00:04:12;22.70;29.20
80214;DHT22;69531;37.974;23.708;2023-05-02T00:06:37;22.70;29.10
80214;DHT22;69531;37.974;23.708;2023-05-02T00:09:03;22.70;29.10
80214;DHT22;69531;37.974;23.708;2023-05-02T00:11:29;22.70;29.00
80214;DHT22;69531;37.974;23.708;2023-05-02T00:13:54;22.70;29.00
80214;DHT22;69531;37.974;23.708;2023-05-02T00:16:20;22.70;28.90
80214;DHT22;69531;37.974;23.708;2023-05-02T00:18:46;22.70;28.80
80214;DHT22;69531;37.974;23.708;2023-05-02T00:21:11;22.70;28.70
80214;DHT22;69531;37.974;23.708;2023-05-02T00:23:38;22.70;28.70
80214;DHT22;69531;37.974;23.708;2023-05-02T00:26:08;22.70;28.70
80214;DHT22;69531;37.974;23.708;2023-05-02T00:28:34;22.70;28.60
80214;DHT22;69531;37.974;23.708;2023-05-02T00:31:00;22.60;28.50
80214;DHT22;69531;37.974;23.708;2023-05-02T00:33:25;22.70;28.50
80214;DHT22;69531;37.974;23.708;2023-05-02T00:35:51;22.70;28.50
80214;DHT22;69531;37.974;23.708;2023-05-02T00:38:17;22.60;28.40
80214;DHT22;69531;37.974;23.708;2023-05-02T00:40:47;22.70;28.30
80214;DHT22;69531;37.974;23.708;2023-05-02T00:43:14;22.70;28.30
80214;DHT22;69531;37.974;23.708;2023-05-02T00:45:41;22.60;28.10
80214;DHT22;69531;37.974;23.708;2023-05-02T00:48:08;22.70;28.10
80214;DHT22;69531;37.974;23.708;2023-05-02T00:50:41;22.60;28.40
80214;DHT22;69531;37.974;23.708;2023-05-02T00:53:09;22.60;28.00
80214;DHT22;69531;37.974;23.708;2023-05-02T00:55:35;22.60;28.00
80214;DHT22;69531;37.974;23.708;2023-05-02T00:58:08;22.60;28.00
80214;DHT22;69531;37.974;23.708;2023-05-02T01:11:59;22.60;28.10
80214;DHT22;69531;37.974;23.708;2023-05-02T01:14:29;22.60;28.10
80214;DHT22;69531;37.974;23.708;2023-05-02T01:16:56;22.50;28.10
80214;DHT22;69531;37.974;23.708;2023-05-02T01:19:31;22.50;28.10
80214;DHT22;69531;37.974;23.708;2023-05-02T01:22:01;22.60;28.10
80214;DHT22;69531;37.974;23.708;2023-05-02T01:24:33;22.60;28.10
80214;DHT22;69531;37.974;23.708;2023-05-02T01:27:10;22.60;28.10
80214;DHT22;69531;37.974;23.708;2023-05-02T01:29:40;22.60;28.10
80214;DHT22;69531;37.974;23.708;2023-05-02T01:32:08;22.60;28.00
80214;DHT22;69531;37.974;23.708;2023-05-02T01:34:36;22.60;27.90
80214;DHT22;69531;37.974;23.708;2023-05-02T01:37:02;22.60;27.80
80214;DHT22;69531;37.974;23.708;2023-05-02T01:39:30;22.60;27.90
80214;DHT22;69531;37.974;23.708;2023-05-02T01:41:58;22.60;27.80
80214;DHT22;69531;37.974;23.708;2023-05-02T01:44:27;22.60;27.90
80214;DHT22;69531;37.974;23.708;2023-05-02T01:46:55;22.60;27.80
80214;DHT22;69531;37.974;23.708;2023-05-02T01:49:23;22.60;27.80
80214;DHT22;69531;37.974;23.708;2023-05-02T01:51:49;22.60;27.80
80214;DHT22;69531;37.974;23.708;2023-05-02T01:54:18;22.60;27.80
80214;DHT22;69531;37.974;23.708;2023-05-02T01:56:45;22.50;27.70
80214;DHT22;69531;37.974;23.708;2023-05-02T01:59:16;22.60;27.70
80214;DHT22;69531;37.974;23.708;2023-05-02T02:01:43;22.50;27.70
80214;DHT22;69531;37.974;23.708;2023-05-02T02:04:12;22.50;27.60
80214;DHT22;69531;37.974;23.708;2023-05-02T02:06:43;22.50;27.60
80214;DHT22;69531;37.974;23.708;2023-05-02T02:09:10;22.50;27.80
80214;DHT22;69531;37.974;23.708;2023-05-02T02:11:42;22.50;27.60
80214;DHT22;69531;37.974;23.708;2023-05-02T02:14:59;22.50;27.60
80214;DHT22;69531;37.974;23.708;2023-05-02T02:17:01;22.60;27.70
80214;DHT22;69531;37.974;23.708;2023-05-02T02:19:29;22.50;27.60
80214;DHT22;69531;37.974;23.708;2023-05-02T02:21:57;22.50;27.60
80214;DHT22;69531;37.974;23.708;2023-05-02T02:24:23;22.50;27.50
80214;DHT22;69531;37.974;23.708;2023-05-02T02:26:50;22.50;27.50
80214;DHT22;69531;37.974;23.708;2023-05-02T02:29:16;22.50;27.50
80214;DHT22;69531;37.974;23.708;2023-05-02T02:31:42;22.50;27.50
80214;DHT22;69531;37.974;23.708;2023-05-02T02:34:08;22.50;27.50
80214;DHT22;69531;37.974;23.708;2023-05-02T02:36:46;22.50;27.50
80214;DHT22;69531;37.974;23.708;2023-05-02T02:44:53;22.50;28.40
80214;DHT22;69531;37.974;23.708;2023-05-02T02:47:22;22.50;27.60
80214;DHT22;69531;37.974;23.708;2023-05-02T02:50:26;22.50;27.60
80214;DHT22;69531;37.974;23.708;2023-05-02T02:52:59;22.50;27.60
80214;DHT22;69531;37.974;23.708;2023-05-02T03:00:54;22.50;27.80
80214;DHT22;69531;37.974;23.708;2023-05-02T03:03:21;22.50;27.80
80214;DHT22;69531;37.974;23.708;2023-05-02T03:05:56;22.50;27.80
80214;DHT22;69531;37.974;23.708;2023-05-02T03:08:22;22.50;27.90
80214;DHT22;69531;37.974;23.708;2023-05-02T03:10:48;22.50;28.00
80214;DHT22;69531;37.974;23.708;2023-05-02T03:13:14;22.50;28.00
80214;DHT22;69531;37.974;23.708;2023-05-02T03:18:18;22.50;28.10
80214;DHT22;69531;37.974;23.708;2023-05-02T03:20:44;22.50;28.20
80214;DHT22;69531;37.974;23.708;2023-05-02T03:23:09;22.50;28.10
80214;DHT22;69531;37.974;23.708;2023-05-02T03:25:35;22.50;28.00
80214;DHT22;69531;37.974;23.708;2023-05-02T03:28:01;22.50;28.00
80214;DHT22;69531;37.974;23.708;2023-05-02T03:30:27;22.50;28.00
80214;DHT22;69531;37.974;23.708;2023-05-02T03:32:53;22.50;28.00
80214;DHT22;69531;37.974;23.708;2023-05-02T03:35:19;22.50;28.00
80214;DHT22;69531;37.974;23.708;2023-05-02T03:37:45;22.50;28.00
80214;DHT22;69531;37.974;23.708;2023-05-02T03:40:11;22.50;28.00
80214;DHT22;69531;37.974;23.708;2023-05-02T03:42:36;22.50;28.00
80214;DHT22;69531;37.974;23.708;2023-05-02T03:45:08;22.50;27.90
80214;DHT22;69531;37.974;23.708;2023-05-02T03:47:34;22.50;27.80
80214;DHT22;69531;37.974;23.708;2023-05-02T03:50:00;22.50;27.80
80214;DHT22;69531;37.974;23.708;2023-05-02T03:52:27;22.50;27.70
80214;DHT22;69531;37.974;23.708;2023-05-02T03:54:53;22.50;27.60
80214;DHT22;69531;37.974;23.708;2023-05-02T03:57:19;22.50;27.60
80214;DHT22;69531;37.974;23.708;2023-05-02T03:59:45;22.50;27.60
80214;DHT22;69531;37.974;23.708;2023-05-02T04:02:11;22.50;27.70
80214;DHT22;69531;37.974;23.708;2023-05-02T04:04:37;22.50;27.80
80214;DHT22;69531;37.974;23.708;2023-05-02T04:07:04;22.50;28.00
80214;DHT22;69531;37.974;23.708;2023-05-02T04:09:32;22.50;27.90
80214;DHT22;69531;37.974;23.708;2023-05-02T04:11:58;22.50;27.80
80214;DHT22;69531;37.974;23.708;2023-05-02T04:14:24;22.50;27.80
80214;DHT22;69531;37.974;23.708;2023-05-02T04:16:51;22.60;27.60
80214;DHT22;69531;37.974;23.708;2023-05-02T04:19:20;22.50;27.60
80214;DHT22;69531;37.974;23.708;2023-05-02T04:21:45;22.60;27.60
80214;DHT22;69531;37.974;23.708;2023-05-02T04:24:12;22.60;27.50
80214;DHT22;69531;37.974;23.708;2023-05-02T04:26:38;22.60;28.10
80214;DHT22;69531;37.974;23.708;2023-05-02T04:29:04;22.70;28.80
80214;DHT22;69531;37.974;23.708;2023-05-02T04:31:32;22.90;28.80
80214;DHT22;69531;37.974;23.708;2023-05-02T04:33:58;23.20;28.50
80214;DHT22;69531;37.974;23.708;2023-05-02T04:36:24;23.50;28.10
80214;DHT22;69531;37.974;23.708;2023-05-02T04:38:53;23.90;27.70
80214;DHT22;69531;37.974;23.708;2023-05-02T04:41:19;24.10;27.30
80214;DHT22;69531;37.974;23.708;2023-05-02T04:43:45;24.10;26.90
80214;DHT22;69531;37.974;23.708;2023-05-02T04:46:11;24.10;26.80
80214;DHT22;69531;37.974;23.708;2023-05-02T04:48:37;24.00;27.00
80214;DHT22;69531;37.974;23.708;2023-05-02T04:51:07;23.90;27.20
80214;DHT22;69531;37.974;23.708;2023-05-02T04:53:34;23.80;27.30
80214;DHT22;69531;37.974;23.708;2023-05-02T04:55:59;23.60;27.50
80214;DHT22;69531;37.974;23.708;2023-05-02T04:58:25;23.50;27.60
80214;DHT22;69531;37.974;23.708;2023-05-02T05:00:51;23.50;27.70
80214;DHT22;69531;37.974;23.708;2023-05-02T05:03:19;23.40;27.80
80214;DHT22;69531;37.974;23.708;2023-05-02T05:05:45;23.40;27.90
80214;DHT22;69531;37.974;23.708;2023-05-02T05:08:10;23.40;28.00
80214;DHT22;69531;37.974;23.708;2023-05-02T05:10:36;23.40;28.10
80214;DHT22;69531;37.974;23.708;2023-05-02T05:13:02;23.30;28.10
80214;DHT22;69531;37.974;23.708;2023-05-02T05:15:29;23.30;28.30
80214;DHT22;69531;37.974;23.708;2023-05-02T05:17:54;23.30;28.30
80214;DHT22;69531;37.974;23.708;2023-05-02T05:20:20;23.30;28.40
80214;DHT22;69531;37.974;23.708;2023-05-02T05:22:46;23.30;28.40
80214;DHT22;69531;37.974;23.708;2023-05-02T05:25:11;23.30;28.40
80214;DHT22;69531;37.974;23.708;2023-05-02T05:27:37;23.30;28.30
80214;DHT22;69531;37.974;23.708;2023-05-02T05:30:04;23.30;28.10
80214;DHT22;69531;37.974;23.708;2023-05-02T05:32:32;23.30;28.10
80214;DHT22;69531;37.974;23.708;2023-05-02T05:34:57;23.30;28.00
80214;DHT22;69531;37.974;23.708;2023-05-02T05:37:23;23.30;28.00
80214;DHT22;69531;37.974;23.708;2023-05-02T05:39:49;23.30;28.00
80214;DHT22;69531;37.974;23.708;2023-05-02T05:42:14;23.20;27.90
80214;DHT22;69531;37.974;23.708;2023-05-02T05:44:41;23.20;27.90
80214;DHT22;69531;37.974;23.708;2023-05-02T05:47:07;23.20;27.80
80214;DHT22;69531;37.974;23.708;2023-05-02T05:49:32;23.30;27.70
80214;DHT22;69531;37.974;23.708;2023-05-02T05:52:01;23.30;27.60
80214;DHT22;69531;37.974;23.708;2023-05-02T05:54:26;23.30;27.30
80214;DHT22;69531;37.974;23.708;2023-05-02T05:56:52;23.30;27.10
80214;DHT22;69531;37.974;23.708;2023-05-02T05:59:18;23.30;27.00
80214;DHT22;69531;37.974;23.708;2023-05-02T06:01:44;23.30;26.90
80214;DHT22;69531;37.974;23.708;2023-05-02T06:04:10;23.30;26.60
80214;DHT22;69531;37.974;23.708;2023-05-02T06:06:35;23.30;26.40
80214;DHT22;69531;37.974;23.708;2023-05-02T06:09:01;23.30;26.20
80214;DHT22;69531;37.974;23.708;2023-05-02T06:11:27;23.30;25.90
80214;DHT22;69531;37.974;23.708;2023-05-02T06:13:53;23.30;25.70
80214;DHT22;69531;37.974;23.708;2023-05-02T06:16:18;23.30;25.50
80214;DHT22;69531;37.974;23.708;2023-05-02T06:18:45;23.30;25.40
80214;DHT22;69531;37.974;23.708;2023-05-02T06:21:11;23.30;25.30
80214;DHT22;69531;37.974;23.708;2023-05-02T06:23:37;23.30;25.00
80214;DHT22;69531;37.974;23.708;2023-05-02T06:26:03;23.40;25.00
80214;DHT22;69531;37.974;23.708;2023-05-02T06:28:30;23.40;25.00
80214;DHT22;69531;37.974;23.708;2023-05-02T06:31:00;23.40;24.90
80214;DHT22;69531;37.974;23.708;2023-05-02T06:33:27;23.40;24.90
80214;DHT22;69531;37.974;23.708;2023-05-02T06:35:52;23.40;24.80
80214;DHT22;69531;37.974;23.708;2023-05-02T06:38:19;23.40;24.80
80214;DHT22;69531;37.974;23.708;2023-05-02T06:40:44;23.50;24.80
80214;DHT22;69531;37.974;23.708;2023-05-02T06:43:11;23.50;24.80
80214;DHT22;69531;37.974;23.708;2023-05-02T06:45:37;23.50;24.80
80214;DHT22;69531;37.974;23.708;2023-05-02T06:48:03;23.40;24.80
80214;DHT22;69531;37.974;23.708;2023-05-02T06:50:29;23.50;24.90
80214;DHT22;69531;37.974;23.708;2023-05-02T06:52:54;23.50;25.00
80214;DHT22;69531;37.974;23.708;2023-05-02T06:55:20;23.50;25.10
80214;DHT22;69531;37.974;23.708;2023-05-02T06:57:48;23.50;25.30
80214;DHT22;69531;37.974;23.708;2023-05-02T07:00:15;23.50;25.30
80214;DHT22;69531;37.974;23.708;2023-05-02T07:02:41;23.50;25.40
80214;DHT22;69531;37.974;23.708;2023-05-02T07:05:07;23.50;25.50
80214;DHT22;69531;37.974;23.708;2023-05-02T07:07:33;23.50;25.50
80214;DHT22;69531;37.974;23.708;2023-05-02T07:09:59;23.60;25.50
80214;DHT22;69531;37.974;23.708;2023-05-02T07:12:25;23.60;25.50
80214;DHT22;69531;37.974;23.708;2023-05-02T07:14:51;23.60;25.60
80214;DHT22;69531;37.974;23.708;2023-05-02T07:17:17;23.60;25.70
80214;DHT22;69531;37.974;23.708;2023-05-02T07:19:43;23.60;25.60
80214;DHT22;69531;37.974;23.708;2023-05-02T07:22:08;23.60;25.60
80214;DHT22;69531;37.974;23.708;2023-05-02T07:24:34;23.60;25.50
80214;DHT22;69531;37.974;23.708;2023-05-02T07:27:00;23.60;25.50
80214;DHT22;69531;37.974;23.708;2023-05-02T07:29:27;23.60;25.50
80214;DHT22;69531;37.974;23.708;2023-05-02T07:31:53;23.60;25.60
80214;DHT22;69531;37.974;23.708;2023-05-02T07:34:19;23.60;25.60
80214;DHT22;69531;37.974;23.708;2023-05-02T07:36:44;23.60;25.60
80214;DHT22;69531;37.974;23.708;2023-05-02T07:39:10;23.60;25.60
80214;DHT22;69531;37.974;23.708;2023-05-02T07:41:36;23.60;25.70
80214;DHT22;69531;37.974;23.708;2023-05-02T07:44:01;23.60;25.70
80214;DHT22;69531;37.974;23.708;2023-05-02T07:46:27;23.60;25.70
80214;DHT22;69531;37.974;23.708;2023-05-02T07:48:53;23.60;25.80
80214;DHT22;69531;37.974;23.708;2023-05-02T07:51:18;23.60;25.80
80214;DHT22;69531;37.974;23.708;2023-05-02T07:53:49;23.70;25.90
80214;DHT22;69531;37.974;23.708;2023-05-02T07:56:14;23.60;25.90
80214;DHT22;69531;37.974;23.708;2023-05-02T07:58:40;23.60;25.90
80214;DHT22;69531;37.974;23.708;2023-05-02T08:01:06;23.60;25.90
80214;DHT22;69531;37.974;23.708;2023-05-02T08:03:32;23.60;25.90
80214;DHT22;69531;37.974;23.708;2023-05-02T08:05:58;23.60;25.90
80214;DHT22;69531;37.974;23.708;2023-05-02T08:08:24;23.60;25.90
80214;DHT22;69531;37.974;23.708;2023-05-02T08:10:49;23.60;26.00
80214;DHT22;69531;37.974;23.708;2023-05-02T08:13:16;23.70;26.00
80214;DHT22;69531;37.974;23.708;2023-05-02T08:15:42;23.70;26.00
80214;DHT22;69531;37.974;23.708;2023-05-02T08:18:07;23.60;26.00
80214;DHT22;69531;37.974;23.708;2023-05-02T08:20:33;23.60;26.00
80214;DHT22;69531;37.974;23.708;2023-05-02T08:22:59;23.60;26.10
80214;DHT22;69531;37.974;23.708;2023-05-02T08:25:24;23.60;26.10
80214;DHT22;69531;37.974;23.708;2023-05-02T08:27:50;23.60;26.20
80214;DHT22;69531;37.974;23.708;2023-05-02T08:30:16;23.60;26.30
80214;DHT22;69531;37.974;23.708;2023-05-02T08:32:42;23.60;26.40
80214;DHT22;69531;37.974;23.708;2023-05-02T08:35:07;23.60;26.50
80214;DHT22;69531;37.974;23.708;2023-05-02T08:37:33;23.60;26.60
80214;DHT22;69531;37.974;23.708;2023-05-02T08:39:59;23.60;26.70
80214;DHT22;69531;37.974;23.708;2023-05-02T08:42:25;23.60;26.80
80214;DHT22;69531;37.974;23.708;2023-05-02T08:44:51;23.60;26.90
80214;DHT22;69531;37.974;23.708;2023-05-02T08:47:17;23.60;27.00
80214;DHT22;69531;37.974;23.708;2023-05-02T08:49:44;23.60;27.00
80214;DHT22;69531;37.974;23.708;2023-05-02T08:52:11;23.60;27.00
80214;DHT22;69531;37.974;23.708;2023-05-02T08:54:38;23.60;27.00
80214;DHT22;69531;37.974;23.708;2023-05-02T08:57:04;23.60;26.90
80214;DHT22;69531;37.974;23.708;2023-05-02T08:59:31;23.60;26.90
80214;DHT22;69531;37.974;23.708;2023-05-02T09:04:55;23.60;26.80
80214;DHT22;69531;37.974;23.708;2023-05-02T09:07:25;23.60;26.80
80214;DHT22;69531;37.974;23.708;2023-05-02T09:09:51;23.60;26.70
80214;DHT22;69531;37.974;23.708;2023-05-02T09:12:24;23.60;26.70
80214;DHT22;69531;37.974;23.708;2023-05-02T09:15:08;23.60;26.70
80214;DHT22;69531;37.974;23.708;2023-05-02T09:17:41;23.60;26.70
80214;DHT22;69531;37.974;23.708;2023-05-02T09:20:09;23.60;26.60
80214;DHT22;69531;37.974;23.708;2023-05-02T09:22:36;23.60;26.60
80214;DHT22;69531;37.974;23.708;2023-05-02T09:25:02;23.60;26.50
80214;DHT22;69531;37.974;23.708;2023-05-02T09:27:29;23.60;26.40
80214;DHT22;69531;37.974;23.708;2023-05-02T09:30:17;23.60;26.30
80214;DHT22;69531;37.974;23.708;2023-05-02T09:32:44;23.60;26.20
80214;DHT22;69531;37.974;23.708;2023-05-02T09:35:10;23.60;26.30
80214;DHT22;69531;37.974;23.708;2023-05-02T09:37:36;23.60;26.20
80214;DHT22;69531;37.974;23.708;2023-05-02T09:40:06;23.60;26.30
80214;DHT22;69531;37.974;23.708;2023-05-02T09:42:33;23.60;26.30
80214;DHT22;69531;37.974;23.708;2023-05-02T09:45:00;23.60;26.40
80214;DHT22;69531;37.974;23.708;2023-05-02T09:47:26;23.60;26.50
80214;DHT22;69531;37.974;23.708;2023-05-02T09:49:52;23.50;26.50
80214;DHT22;69531;37.974;23.708;2023-05-02T09:52:19;23.60;26.60
80214;DHT22;69531;37.974;23.708;2023-05-02T09:54:48;23.50;26.60
80214;DHT22;69531;37.974;23.708;2023-05-02T09:57:18;23.60;26.60
80214;DHT22;69531;37.974;23.708;2023-05-02T09:59:57;23.50;26.60
80214;DHT22;69531;37.974;23.708;2023-05-02T10:02:23;23.60;26.70
80214;DHT22;69531;37.974;23.708;2023-05-02T10:04:54;23.50;26.80
80214;DHT22;69531;37.974;23.708;2023-05-02T10:07:21;23.50;26.90
80214;DHT22;69531;37.974;23.708;2023-05-02T10:09:48;23.50;26.90
80214;DHT22;69531;37.974;23.708;2023-05-02T10:12:17;23.60;27.00
80214;DHT22;69531;37.974;23.708;2023-05-02T10:14:49;23.60;27.00
80214;DHT22;69531;37.974;23.708;2023-05-02T10:17:27;23.60;27.00
80214;DHT22;69531;37.974;23.708;2023-05-02T10:20:05;23.60;27.00
80214;DHT22;69531;37.974;23.708;2023-05-02T10:22:35;23.60;27.00
80214;DHT22;69531;37.974;23.708;2023-05-02T10:25:02;23.60;27.10
80214;DHT22;69531;37.974;23.708;2023-05-02T10:27:32;23.60;26.90
80214;DHT22;69531;37.974;23.708;2023-05-02T10:29:58;23.60;26.80
80214;DHT22;69531;37.974;23.708;2023-05-02T10:32:28;23.60;26.80
80214;DHT22;69531;37.974;23.708;2023-05-02T10:34:56;23.60;26.70
80214;DHT22;69531;37.974;23.708;2023-05-02T10:37:23;23.60;26.50
80214;DHT22;69531;37.974;23.708;2023-05-02T10:39:49;23.60;26.50
80214;DHT22;69531;37.974;23.708;2023-05-02T10:42:16;23.60;26.50
80214;DHT22;69531;37.974;23.708;2023-05-02T10:44:43;23.60;26.50
80214;DHT22;69531;37.974;23.708;2023-05-02T10:49:54;23.60;26.60
80214;DHT22;69531;37.974;23.708;2023-05-02T10:52:34;23.70;26.70
80214;DHT22;69531;37.974;23.708;2023-05-02T10:55:22;23.60;26.70
80214;DHT22;69531;37.974;23.708;2023-05-02T11:00:33;23.60;26.90
80214;DHT22;69531;37.974;23.708;2023-05-02T11:03:00;23.70;26.90
80214;DHT22;69531;37.974;23.708;2023-05-02T11:05:26;23.70;26.90
80214;DHT22;69531;37.974;23.708;2023-05-02T11:10:40;23.80;27.10
80214;DHT22;69531;37.974;23.708;2023-05-02T11:13:05;23.80;27.30
80214;DHT22;69531;37.974;23.708;2023-05-02T11:18:04;23.80;27.60
80214;DHT22;69531;37.974;23.708;2023-05-02T11:20:37;23.80;27.80
80214;DHT22;69531;37.974;23.708;2023-05-02T11:26:04;23.70;28.10
80214;DHT22;69531;37.974;23.708;2023-05-02T11:31:05;23.80;28.30
80214;DHT22;69531;37.974;23.708;2023-05-02T11:33:31;23.80;28.40
80214;DHT22;69531;37.974;23.708;2023-05-02T11:35:57;23.80;28.50
80214;DHT22;69531;37.974;23.708;2023-05-02T11:38:24;23.80;28.60
80214;DHT22;69531;37.974;23.708;2023-05-02T11:40:53;23.80;28.50
80214;DHT22;69531;37.974;23.708;2023-05-02T11:43:19;23.80;28.70
80214;DHT22;69531;37.974;23.708;2023-05-02T11:45:49;23.80;28.80
80214;DHT22;69531;37.974;23.708;2023-05-02T11:48:17;23.80;28.80
80214;DHT22;69531;37.974;23.708;2023-05-02T11:50:49;23.80;28.90
80214;DHT22;69531;37.974;23.708;2023-05-02T11:53:20;23.80;28.90
80214;DHT22;69531;37.974;23.708;2023-05-02T11:55:57;23.80;29.00
80214;DHT22;69531;37.974;23.708;2023-05-02T11:58:25;23.80;29.10
80214;DHT22;69531;37.974;23.708;2023-05-02T12:00:54;23.80;29.30
80214;DHT22;69531;37.974;23.708;2023-05-02T12:03:31;23.80;29.40
80214;DHT22;69531;37.974;23.708;2023-05-02T12:06:09;23.80;29.30
80214;DHT22;69531;37.974;23.708;2023-05-02T12:08:38;23.80;29.40
80214;DHT22;69531;37.974;23.708;2023-05-02T12:11:04;23.80;29.50
80214;DHT22;69531;37.974;23.708;2023-05-02T12:13:31;23.80;29.60
80214;DHT22;69531;37.974;23.708;2023-05-02T12:15:57;23.80;29.70
80214;DHT22;69531;37.974;23.708;2023-05-02T12:18:24;23.80;29.60
80214;DHT22;69531;37.974;23.708;2023-05-02T12:20:54;23.80;29.80
80214;DHT22;69531;37.974;23.708;2023-05-02T12:23:23;23.80;29.80
80214;DHT22;69531;37.974;23.708;2023-05-02T12:25:50;23.80;29.80
80214;DHT22;69531;37.974;23.708;2023-05-02T12:28:17;23.80;29.90
80214;DHT22;69531;37.974;23.708;2023-05-02T12:30:49;23.90;30.00
80214;DHT22;69531;37.974;23.708;2023-05-02T12:33:16;23.80;30.00
80214;DHT22;69531;37.974;23.708;2023-05-02T12:35:42;23.90;30.40
80214;DHT22;69531;37.974;23.708;2023-05-02T12:38:19;23.80;30.40
80214;DHT22;69531;37.974;23.708;2023-05-02T12:40:53;23.80;30.70
80214;DHT22;69531;37.974;23.708;2023-05-02T12:43:22;23.80;30.90
80214;DHT22;69531;37.974;23.708;2023-05-02T12:45:48;23.80;31.10
80214;DHT22;69531;37.974;23.708;2023-05-02T12:50:45;23.80;31.40
80214;DHT22;69531;37.974;23.708;2023-05-02T12:53:11;23.80;31.40
80214;DHT22;69531;37.974;23.708;2023-05-02T12:55:37;23.80;31.90
80214;DHT22;69531;37.974;23.708;2023-05-02T12:58:07;23.70;32.10
80214;DHT22;69531;37.974;23.708;2023-05-02T13:00:37;23.70;32.20
80214;DHT22;69531;37.974;23.708;2023-05-02T13:03:03;23.70;32.20
80214;DHT22;69531;37.974;23.708;2023-05-02T13:05:29;23.70;32.30
80214;DHT22;69531;37.974;23.708;2023-05-02T13:07:55;23.70;32.30
80214;DHT22;69531;37.974;23.708;2023-05-02T13:10:22;23.70;32.20
80214;DHT22;69531;37.974;23.708;2023-05-02T13:12:50;23.80;32.10
80214;DHT22;69531;37.974;23.708;2023-05-02T13:15:17;23.80;31.90
80214;DHT22;69531;37.974;23.708;2023-05-02T13:17:44;23.80;31.80
80214;DHT22;69531;37.974;23.708;2023-05-02T13:20:10;23.80;31.80
80214;DHT22;69531;37.974;23.708;2023-05-02T13:22:36;23.80;31.80
80214;DHT22;69531;37.974;23.708;2023-05-02T13:25:03;23.80;31.80
80214;DHT22;69531;37.974;23.708;2023-05-02T13:27:29;23.80;31.70
80214;DHT22;69531;37.974;23.708;2023-05-02T13:29:55;23.80;31.80
80214;DHT22;69531;37.974;23.708;2023-05-02T13:32:21;23.80;31.80
80214;DHT22;69531;37.974;23.708;2023-05-02T13:34:47;23.80;32.00
80214;DHT22;69531;37.974;23.708;2023-05-02T13:37:12;23.90;32.30
80214;DHT22;69531;37.974;23.708;2023-05-02T13:39:38;23.80;32.50
80214;DHT22;69531;37.974;23.708;2023-05-02T13:42:04;23.80;32.60
80214;DHT22;69531;37.974;23.708;2023-05-02T13:44:31;23.80;32.80
80214;DHT22;69531;37.974;23.708;2023-05-02T13:46:57;23.80;33.20
80214;DHT22;69531;37.974;23.708;2023-05-02T13:49:23;23.70;33.50
80214;DHT22;69531;37.974;23.708;2023-05-02T13:51:49;23.80;33.60
80214;DHT22;69531;37.974;23.708;2023-05-02T13:54:14;23.70;33.50
80214;DHT22;69531;37.974;23.708;2023-05-02T13:56:43;23.70;33.50
80214;DHT22;69531;37.974;23.708;2023-05-02T13:59:09;23.70;34.00
80214;DHT22;69531;37.974;23.708;2023-05-02T14:01:35;23.70;34.10
80214;DHT22;69531;37.974;23.708;2023-05-02T14:04:05;23.70;34.40
80214;DHT22;69531;37.974;23.708;2023-05-02T14:06:35;23.70;34.60
80214;DHT22;69531;37.974;23.708;2023-05-02T14:09:01;23.70;34.60
80214;DHT22;69531;37.974;23.708;2023-05-02T14:11:27;23.70;34.60
80214;DHT22;69531;37.974;23.708;2023-05-02T14:13:53;23.60;34.40
80214;DHT22;69531;37.974;23.708;2023-05-02T14:16:19;23.70;34.20
80214;DHT22;69531;37.974;23.708;2023-05-02T14:18:45;23.60;34.10
80214;DHT22;69531;37.974;23.708;2023-05-02T14:21:10;23.60;35.70
80214;DHT22;69531;37.974;23.708;2023-05-02T14:23:36;23.60;34.50
80214;DHT22;69531;37.974;23.708;2023-05-02T14:26:02;23.60;34.60
80214;DHT22;69531;37.974;23.708;2023-05-02T14:28:28;23.50;34.70
80214;DHT22;69531;37.974;23.708;2023-05-02T14:30:54;23.50;35.00
80214;DHT22;69531;37.974;23.708;2023-05-02T14:33:20;23.50;34.90
80214;DHT22;69531;37.974;23.708;2023-05-02T14:35:45;23.50;35.10
80214;DHT22;69531;37.974;23.708;2023-05-02T14:38:11;23.50;35.00
80214;DHT22;69531;37.974;23.708;2023-05-02T14:40:37;23.40;34.70
80214;DHT22;69531;37.974;23.708;2023-05-02T14:43:03;23.40;34.70
80214;DHT22;69531;37.974;23.708;2023-05-02T14:45:29;23.40;34.50
80214;DHT22;69531;37.974;23.708;2023-05-02T14:47:55;23.40;34.50
80214;DHT22;69531;37.974;23.708;2023-05-02T14:50:22;23.40;34.40
80214;DHT22;69531;37.974;23.708;2023-05-02T14:52:47;23.40;34.70
80214;DHT22;69531;37.974;23.708;2023-05-02T14:55:13;23.40;34.80
80214;DHT22;69531;37.974;23.708;2023-05-02T14:57:39;23.40;34.70
80214;DHT22;69531;37.974;23.708;2023-05-02T15:00:05;23.40;35.40
80214;DHT22;69531;37.974;23.708;2023-05-02T15:02:37;23.40;35.40
80214;DHT22;69531;37.974;23.708;2023-05-02T15:05:03;23.40;35.80
80214;DHT22;69531;37.974;23.708;2023-05-02T15:07:30;23.40;35.90
80214;DHT22;69531;37.974;23.708;2023-05-02T15:09:56;23.40;36.00
80214;DHT22;69531;37.974;23.708;2023-05-02T15:12:22;23.40;36.20
80214;DHT22;69531;37.974;23.708;2023-05-02T15:14:48;23.40;36.20
80214;DHT22;69531;37.974;23.708;2023-05-02T15:17:14;23.40;36.40
80214;DHT22;69531;37.974;23.708;2023-05-02T15:19:40;23.40;36.80
80214;DHT22;69531;37.974;23.708;2023-05-02T15:22:05;23.40;36.90
80214;DHT22;69531;37.974;23.708;2023-05-02T15:24:31;23.30;36.80
80214;DHT22;69531;37.974;23.708;2023-05-02T15:26:57;23.40;36.80
80214;DHT22;69531;37.974;23.708;2023-05-02T15:29:23;23.30;36.60
80214;DHT22;69531;37.974;23.708;2023-05-02T15:31:48;23.30;36.40
80214;DHT22;69531;37.974;23.708;2023-05-02T15:34:14;23.30;36.50
80214;DHT22;69531;37.974;23.708;2023-05-02T15:36:40;23.30;36.60
80214;DHT22;69531;37.974;23.708;2023-05-02T15:39:07;23.30;36.80
80214;DHT22;69531;37.974;23.708;2023-05-02T15:41:33;23.30;36.90
80214;DHT22;69531;37.974;23.708;2023-05-02T15:43:59;23.30;37.00
80214;DHT22;69531;37.974;23.708;2023-05-02T15:46:25;23.30;36.60
80214;DHT22;69531;37.974;23.708;2023-05-02T15:48:51;23.30;35.90
80214;DHT22;69531;37.974;23.708;2023-05-02T15:51:17;23.30;35.60
80214;DHT22;69531;37.974;23.708;2023-05-02T15:53:43;23.20;35.00
80214;DHT22;69531;37.974;23.708;2023-05-02T15:56:10;23.20;34.80
80214;DHT22;69531;37.974;23.708;2023-05-02T15:58:36;23.20;34.70
80214;DHT22;69531;37.974;23.708;2023-05-02T16:01:03;23.20;34.50
80214;DHT22;69531;37.974;23.708;2023-05-02T16:03:28;23.20;34.40